Time;durP1;ratioP1;P1;durP2;ratioP2;P2;SDS_P1;SDS_P2;PMS_P1;PMS_P2;Temp;Humidity;BMP_temperature;BMP_pressure;BME280_temperature;BME280_humidity;BME280_pressure;Samples;Min_cycle;Max_cycle;Signal;HPM_P1;HPM_P2
2022/02/27 00:01:48;;;;;;;17.15;7.43;;;;;;;-2.44;96.85;100363.84;4191752;28;20047;-72
2022/02/27 00:03:49;;;;;;;16.67;8.15;;;;;;;-2.54;98.04;100358.25;4202932;28;20660;-72
2022/02/27 00:05:49;;;;;;;16.33;7.93;;;;;;;-2.57;98.12;100356.84;4201752;28;20040;-72
2022/02/27 00:07:49;;;;;;;12.93;7.38;;;;;;;-2.59;98.30;100353.56;4190997;28;20052;-72
2022/02/27 00:09:50;;;;;;;16.90;8.27;;;;;;;-2.60;98.49;100354.63;4186940;28;20044;-72
2022/02/27 00:11:50;;;;;;;13.98;7.57;;;;;;;-2.55;99.06;100357.44;4187142;28;20511;-72
2022/02/27 00:13:50;;;;;;;15.48;8.40;;;;;;;-2.43;98.68;100345.69;4186767;28;20047;-72
2022/02/27 00:15:51;;;;;;;14.98;7.45;;;;;;;-2.39;95.80;100352.28;4186906;28;20056;-72
2022/02/27 00:17:51;;;;;;;13.02;7.00;;;;;;;-2.37;94.17;100348.25;4195870;28;20123;-72
2022/02/27 00:19:51;;;;;;;18.40;7.78;;;;;;;-2.41;93.27;100355.19;4186282;28;20514;-72
2022/02/27 00:21:52;;;;;;;14.93;7.53;;;;;;;-2.52;93.81;100355.31;4192443;28;20396;-72
2022/02/27 00:23:52;;;;;;;14.18;7.38;;;;;;;-2.55;96.32;100356.63;4189051;28;20040;-72
2022/02/27 00:25:53;;;;;;;17.10;8.57;;;;;;;-2.54;96.42;100355.56;4186506;28;20059;-72
2022/02/27 00:27:53;;;;;;;14.20;8.13;;;;;;;-2.50;94.62;100353.97;4191157;28;20401;-73
2022/02/27 00:29:53;;;;;;;14.88;7.93;;;;;;;-2.50;95.08;100359.41;4202106;28;20400;-73
2022/02/27 00:31:54;;;;;;;13.25;7.45;;;;;;;-2.47;95.63;100358.09;4202252;28;20422;-73
2022/02/27 00:33:54;;;;;;;12.65;6.85;;;;;;;-2.47;95.12;100356.22;4200937;28;20046;-72
2022/02/27 00:35:54;;;;;;;14.55;8.10;;;;;;;-2.44;92.87;100354.88;4201154;28;20131;-72
2022/02/27 00:37:55;;;;;;;13.82;7.55;;;;;;;-2.41;94.05;100359.81;4191043;28;20060;-73
2022/02/27 00:39:55;;;;;;;16.08;7.85;;;;;;;-2.50;92.13;100359.41;4186343;28;20048;-73
2022/02/27 00:41:55;;;;;;;33.28;15.57;;;;;;;-2.57;93.21;100356.03;4186987;28;20052;-73
2022/02/27 00:43:56;;;;;;;20.75;10.50;;;;;;;-2.62;95.36;100354.06;4199282;28;20380;-73
2022/02/27 00:45:56;;;;;;;18.55;9.60;;;;;;;-2.61;94.15;100353.00;4191109;28;20037;-73
2022/02/27 00:47:56;;;;;;;21.55;9.70;;;;;;;-2.60;94.33;100356.53;4185833;28;20058;-73
2022/02/27 00:49:57;;;;;;;16.17;9.68;;;;;;;-2.62;94.45;100358.66;4188533;28;20542;-73
2022/02/27 00:51:57;;;;;;;15.57;8.75;;;;;;;-2.66;94.91;100350.19;4202611;28;20330;-72
2022/02/27 00:53:57;;;;;;;18.35;8.48;;;;;;;-2.61;96.16;100346.75;4200948;28;20048;-73
2022/02/27 00:55:58;;;;;;;17.00;9.50;;;;;;;-2.53;94.92;100345.53;4201275;28;20472;-73
2022/02/27 00:57:58;;;;;;;16.60;8.68;;;;;;;-2.49;94.46;100350.19;4196936;28;20305;-73
2022/02/27 00:59:59;;;;;;;22.60;10.23;;;;;;;-2.44;94.96;100334.03;4186499;28;20497;-72
2022/02/27 01:01:59;;;;;;;20.65;9.27;;;;;;;-2.37;93.21;100340.09;4188546;28;20029;-73
2022/02/27 01:03:59;;;;;;;22.38;11.85;;;;;;;-2.39;92.90;100336.81;4186059;28;20066;-72
2022/02/27 01:06:00;;;;;;;27.40;11.93;;;;;;;-2.42;93.34;100345.44;4185010;28;20574;-72
2022/02/27 01:08:00;;;;;;;18.10;9.43;;;;;;;-2.39;92.91;100339.53;4185644;28;20044;-72
2022/02/27 01:10:01;;;;;;;25.88;11.38;;;;;;;-2.37;92.47;100344.69;4196464;28;20163;-74
2022/02/27 01:12:01;;;;;;;25.13;11.32;;;;;;;-2.42;93.33;100341.91;4190036;28;20028;-73
2022/02/27 01:14:02;;;;;;;20.23;10.35;;;;;;;-2.47;93.75;100355.41;4187061;28;20048;-73
2022/02/27 01:16:04;;;;;;;16.25;10.15;;;;;;;-2.52;93.66;100349.88;4186503;28;20368;-73
2022/02/27 01:18:05;;;;;;;17.10;9.82;;;;;;;-2.64;94.30;100353.50;4185601;28;20039;-73
2022/02/27 01:20:06;;;;;;;21.50;10.85;;;;;;;-2.72;95.90;100351.19;4188851;28;20055;-72
2022/02/27 01:22:06;;;;;;;24.58;11.18;;;;;;;-2.79;96.23;100352.41;4189826;28;20032;-73
2022/02/27 01:24:07;;;;;;;17.92;10.00;;;;;;;-2.88;96.94;100350.09;4190469;28;20029;-72
2022/02/27 01:26:08;;;;;;;21.10;10.27;;;;;;;-2.90;98.22;100346.78;4193821;28;20163;-72
2022/02/27 01:28:08;;;;;;;19.00;9.75;;;;;;;-2.86;97.68;100357.97;4201778;28;20418;-72
2022/02/27 01:30:10;;;;;;;18.17;10.25;;;;;;;-2.88;98.31;100343.88;4189864;28;20386;-73
2022/02/27 01:32:11;;;;;;;23.58;9.18;;;;;;;-2.89;98.69;100345.75;4189089;28;20538;-73
2022/02/27 01:34:11;;;;;;;17.58;9.25;;;;;;;-2.85;99.33;100346.06;4195863;28;20058;-73
2022/02/27 01:36:11;;;;;;;18.25;8.40;;;;;;;-2.82;99.19;100346.41;4192310;28;20504;-72
2022/02/27 01:38:11;;;;;;;16.60;8.23;;;;;;;-2.85;99.38;100341.47;4190654;28;20468;-73
2022/02/27 01:40:12;;;;;;;14.77;8.20;;;;;;;-2.83;99.91;100352.88;4202614;28;20036;-72
2022/02/27 01:42:15;;;;;;;21.45;8.18;;;;;;;-2.79;99.30;100350.53;4193134;28;20367;-72
2022/02/27 01:44:15;;;;;;;;;;;;;;;-2.78;99.34;100348.63;4191923;28;20038;-72
2022/02/27 01:46:15;;;;;;;15.18;7.63;;;;;;;-2.78;98.93;100352.16;4193514;28;19916;-72
2022/02/27 01:48:15;;;;;;;14.77;7.65;;;;;;;-2.73;97.69;100354.97;4190515;28;20328;-72
2022/02/27 01:50:16;;;;;;;13.75;7.53;;;;;;;-2.76;97.32;100346.50;4192825;28;20032;-72
2022/02/27 01:52:16;;;;;;;14.57;6.97;;;;;;;-2.79;97.37;100353.22;4192773;28;20113;-72
2022/02/27 01:54:17;;;;;;;16.58;7.63;;;;;;;-2.78;96.65;100352.16;4195926;28;20029;-72
2022/02/27 01:56:17;;;;;;;19.33;7.60;;;;;;;-2.71;95.91;100354.72;4192839;28;20543;-73
2022/02/27 01:58:18;;;;;;;12.13;7.57;;;;;;;-2.72;95.20;100345.78;4192649;28;20021;-72
2022/02/27 02:00:18;;;;;;;12.68;7.30;;;;;;;-2.74;95.95;100352.47;4192227;28;20029;-72
2022/02/27 02:02:18;;;;;;;17.17;7.45;;;;;;;-2.81;95.82;100349.97;4191704;28;20406;-72
2022/02/27 02:04:19;;;;;;;12.63;7.93;;;;;;;-2.86;95.63;100350.69;4194819;28;20025;-72
2022/02/27 02:06:19;;;;;;;13.45;6.97;;;;;;;-2.94;96.67;100347.53;4190883;28;20456;-72
2022/02/27 02:08:20;;;;;;;13.48;7.18;;;;;;;-2.97;97.57;100340.75;4191724;28;20021;-72
2022/02/27 02:10:20;;;;;;;16.00;7.60;;;;;;;-2.99;97.91;100345.56;4192656;28;20048;-72
2022/02/27 02:12:21;;;;;;;14.85;7.05;;;;;;;-3.02;97.51;100345.22;4189809;28;20197;-72
2022/02/27 02:14:22;;;;;;;15.23;7.18;;;;;;;-3.06;96.47;100349.47;4192525;28;20040;-72
2022/02/27 02:16:22;;;;;;;11.65;7.28;;;;;;;-3.10;97.66;100341.03;4192046;28;20321;-72
2022/02/27 02:18:23;;;;;;;16.88;7.35;;;;;;;-3.12;96.93;100338.56;4191616;28;20124;-72
2022/02/27 02:20:23;;;;;;;12.52;6.45;;;;;;;-3.17;96.75;100345.78;4191274;28;20036;-72
2022/02/27 02:22:24;;;;;;;16.73;6.90;;;;;;;-3.21;97.58;100342.75;4191981;28;20136;-72
2022/02/27 02:24:24;;;;;;;13.30;7.22;;;;;;;-3.21;98.52;100344.63;4196032;28;20494;-72
2022/02/27 02:26:25;;;;;;;12.60;7.53;;;;;;;-3.20;97.98;100335.44;4193060;28;20748;-72
2022/02/27 02:28:26;;;;;;;14.77;6.78;;;;;;;-3.19;98.27;100332.47;4193876;28;20039;-72
2022/02/27 02:30:26;;;;;;;16.63;7.70;;;;;;;-3.15;97.07;100330.09;4188192;28;20045;-72
2022/02/27 02:32:27;;;;;;;13.05;7.13;;;;;;;-3.09;95.79;100337.25;4191097;28;20430;-72
2022/02/27 02:34:27;;;;;;;18.15;7.45;;;;;;;-3.15;96.05;100333.63;4192393;28;20037;-73
2022/02/27 02:36:28;;;;;;;13.88;7.65;;;;;;;-3.14;96.62;100337.19;4193327;28;20507;-73
2022/02/27 02:38:28;;;;;;;12.32;6.40;;;;;;;-3.12;95.67;100332.34;4191328;28;20376;-72
2022/02/27 02:40:28;;;;;;;12.40;6.97;;;;;;;-3.14;95.10;100332.59;4194213;28;20125;-72
2022/02/27 02:42:28;;;;;;;16.27;6.90;;;;;;;-3.11;96.34;100336.69;4190077;28;20601;-72
2022/02/27 02:44:29;;;;;;;13.90;7.18;;;;;;;-3.16;95.78;100337.41;4193129;28;20040;-72
2022/02/27 02:46:29;;;;;;;12.95;7.03;;;;;;;-3.24;96.05;100332.38;4191693;28;20396;-73
2022/02/27 02:48:30;;;;;;;11.38;6.85;;;;;;;-3.29;95.96;100332.28;4190589;28;20098;-72
2022/02/27 02:50:30;;;;;;;13.40;6.43;;;;;;;-3.38;95.42;100332.94;4192689;28;20032;-72
2022/02/27 02:52:30;;;;;;;13.77;7.03;;;;;;;-3.46;96.10;100331.44;4190450;28;20044;-72
2022/02/27 02:54:30;;;;;;;14.88;7.65;;;;;;;-3.55;96.96;100327.47;4192079;28;20033;-72
2022/02/27 02:56:31;;;;;;;13.93;7.47;;;;;;;-3.56;96.73;100328.50;4193376;28;20071;-72
2022/02/27 02:58:41;;;;;;;12.48;6.65;;;;;;;-3.58;97.08;100330.63;4192581;28;20071;-72
2022/02/27 03:00:42;;;;;;;13.65;6.55;;;;;;;-3.64;96.48;100332.44;4190142;28;20328;-72
2022/02/27 03:02:42;;;;;;;12.10;6.78;;;;;;;-3.70;96.63;100320.66;4190676;28;20040;-72
2022/02/27 03:04:43;;;;;;;11.40;7.00;;;;;;;-3.74;98.27;100324.06;4185848;28;20396;-72
2022/02/27 03:06:43;;;;;;;10.07;7.00;;;;;;;-3.73;98.35;100328.44;4191714;28;20051;-72
2022/02/27 03:08:47;;;;;;;14.65;7.30;;;;;;;-3.71;97.43;100321.72;4189969;28;20119;-72
2022/02/27 03:10:47;;;;;;;14.70;6.95;;;;;;;-3.68;97.54;100317.72;4190637;28;20413;-72
2022/02/27 03:12:47;;;;;;;14.48;8.10;;;;;;;-3.61;97.38;100320.28;4191898;28;20076;-72
2022/02/27 03:14:49;;;;;;;12.85;7.35;;;;;;;-3.59;97.43;100323.56;4192089;28;20052;-72
2022/02/27 03:16:49;;;;;;;14.88;7.35;;;;;;;-3.55;94.70;100330.16;4189051;28;20056;-72
2022/02/27 03:18:49;;;;;;;16.02;7.88;;;;;;;-3.53;95.20;100334.25;4190480;28;20445;-72
2022/02/27 03:20:50;;;;;;;17.42;7.88;;;;;;;-3.51;94.42;100332.13;4191859;28;20454;-72
2022/02/27 03:22:50;;;;;;;15.98;7.38;;;;;;;-3.56;95.09;100336.59;4190670;28;20045;-71
2022/02/27 03:24:50;;;;;;;12.27;7.20;;;;;;;-3.64;95.62;100335.13;4191194;28;20056;-71
2022/02/27 03:26:51;;;;;;;17.08;8.32;;;;;;;-3.73;96.43;100334.66;4192739;28;20089;-72
2022/02/27 03:28:51;;;;;;;17.88;9.68;;;;;;;-3.78;97.99;100329.16;4189010;28;20069;-72
2022/02/27 03:30:53;;;;;;;23.05;9.35;;;;;;;-3.74;97.66;100337.59;4190472;28;20131;-72
2022/02/27 03:32:53;;;;;;;21.38;9.25;;;;;;;-3.75;96.47;100327.84;4191405;28;20499;-72
2022/02/27 03:34:53;;;;;;;19.65;10.10;;;;;;;-3.75;97.10;100328.66;4189437;28;20127;-72
2022/02/27 03:36:54;;;;;;;19.17;8.93;;;;;;;-3.72;96.58;100330.09;4190454;28;20068;-71
2022/02/27 03:38:54;;;;;;;18.20;9.82;;;;;;;-3.74;95.57;100326.78;4190668;28;20040;-72
2022/02/27 03:40:54;;;;;;;16.65;8.75;;;;;;;-3.76;96.04;100323.50;4192424;28;20048;-72
2022/02/27 03:42:56;;;;;;;24.73;9.70;;;;;;;-3.77;96.00;100327.28;4189720;28;20044;-72
2022/02/27 03:44:56;;;;;;;21.27;10.00;;;;;;;-3.74;95.86;100315.97;4190477;28;20029;-72
2022/02/27 03:46:57;;;;;;;19.40;9.45;;;;;;;-3.78;95.78;100320.22;4190925;28;20039;-72
2022/02/27 03:48:57;;;;;;;15.95;8.85;;;;;;;-3.75;96.03;100317.03;4191613;28;20154;-72
2022/02/27 03:50:57;;;;;;;16.33;8.75;;;;;;;-3.74;95.10;100318.66;4190590;28;20470;-72
2022/02/27 03:52:58;;;;;;;19.83;9.40;;;;;;;-3.77;95.03;100314.56;4191373;28;20036;-72
2022/02/27 03:54:59;;;;;;;17.88;8.10;;;;;;;-3.79;95.73;100315.88;4191209;28;20086;-72
2022/02/27 03:56:59;;;;;;;18.90;8.55;;;;;;;-3.77;95.49;100311.03;4188698;28;20041;-72
2022/02/27 03:59:00;;;;;;;17.60;8.20;;;;;;;-3.81;96.19;100315.28;4192160;28;20475;-72
2022/02/27 04:01:00;;;;;;;18.67;9.23;;;;;;;-3.83;95.08;100310.09;4190640;28;20040;-72
2022/02/27 04:03:00;;;;;;;14.80;7.88;;;;;;;-3.78;95.37;100314.81;4189439;28;20068;-71
2022/02/27 04:05:01;;;;;;;12.15;7.25;;;;;;;-3.78;96.01;100325.63;4191538;28;20409;-71
2022/02/27 04:07:01;;;;;;;14.40;7.55;;;;;;;-3.80;94.96;100323.16;4188807;28;20217;-71
2022/02/27 04:09:02;;;;;;;17.55;6.90;;;;;;;-3.79;94.29;100329.41;4188448;28;20512;-72
2022/02/27 04:11:02;;;;;;;14.65;7.22;;;;;;;-3.86;93.52;100321.41;4192610;28;20052;-72
2022/02/27 04:13:03;;;;;;;15.45;7.20;;;;;;;-3.92;95.04;100321.53;4189562;28;20028;-72
2022/02/27 04:15:04;;;;;;;13.70;7.43;;;;;;;-4.01;94.17;100316.50;4191138;28;20119;-72
2022/02/27 04:17:04;;;;;;;15.50;6.90;;;;;;;-4.08;94.68;100314.97;4190221;28;20884;-72
2022/02/27 04:19:05;;;;;;;13.48;6.82;;;;;;;-4.14;95.59;100316.75;4189860;28;20037;-72
2022/02/27 04:21:06;;;;;;;14.85;7.90;;;;;;;-4.21;97.17;100321.47;4189841;28;20499;-72
2022/02/27 04:23:06;;;;;;;16.52;7.05;;;;;;;-4.25;96.98;100331.91;4191244;28;20143;-72
2022/02/27 04:25:07;;;;;;;10.43;6.50;;;;;;;-4.31;96.55;100330.16;4188685;28;20041;-72
2022/02/27 04:27:07;;;;;;;13.20;7.15;;;;;;;-4.38;95.98;100320.53;4188138;28;20051;-71
2022/02/27 04:29:08;;;;;;;15.15;7.18;;;;;;;-4.43;95.72;100336.63;4191133;28;20040;-72
2022/02/27 04:31:09;;;;;;;14.02;6.78;;;;;;;-4.42;95.73;100328.28;4190274;28;20186;-72
2022/02/27 04:33:09;;;;;;;9.57;5.93;;;;;;;-4.43;95.46;100337.44;4189370;28;20044;-72
2022/02/27 04:35:10;;;;;;;11.00;6.63;;;;;;;-4.41;97.48;100335.31;4189898;28;20642;-72
2022/02/27 04:37:10;;;;;;;17.15;6.95;;;;;;;-4.43;97.65;100334.75;4189229;28;20041;-72
2022/02/27 04:39:10;;;;;;;12.95;6.53;;;;;;;-4.39;97.01;100340.50;4190129;28;20412;-72
2022/02/27 04:41:17;;;;;;;16.35;5.88;;;;;;;-4.41;96.32;100345.31;4191357;28;20310;-72
2022/02/27 04:43:18;;;;;;;10.60;6.25;;;;;;;-4.50;97.03;100341.31;4187948;28;20180;-72
2022/02/27 04:45:19;;;;;;;12.93;6.38;;;;;;;-4.56;97.38;100341.19;4189325;28;20080;-72
2022/02/27 04:47:20;;;;;;;13.70;6.05;;;;;;;-4.60;97.72;100342.72;4190305;28;20135;-72
2022/02/27 04:49:20;;;;;;;11.32;6.13;;;;;;;-4.63;98.04;100342.38;4191587;28;20080;-72
2022/02/27 04:51:21;;;;;;;19.08;8.65;;;;;;;-4.64;98.34;100335.31;4189211;28;20051;-72
2022/02/27 04:53:21;;;;;;;30.25;11.63;;;;;;;-4.65;97.55;100331.78;4189293;28;20040;-72
2022/02/27 04:55:21;;;;;;;30.48;10.45;;;;;;;-4.68;96.98;100343.06;4188013;28;20093;-72
2022/02/27 04:57:22;;;;;;;23.73;9.93;;;;;;;-4.69;97.55;100346.81;4191434;28;20519;-72
2022/02/27 04:59:22;;;;;;;49.25;17.10;;;;;;;-4.78;97.92;100332.00;4189077;28;20063;-72
2022/02/27 05:01:22;;;;;;;35.70;13.52;;;;;;;-4.75;99.31;100345.03;4188424;28;20053;-73
2022/02/27 05:03:23;;;;;;;29.48;13.52;;;;;;;-4.79;98.54;100346.56;4190129;28;20067;-72
2022/02/27 05:05:23;;;;;;;34.92;12.60;;;;;;;-4.77;99.61;100343.63;4189182;28;20132;-72
2022/02/27 05:07:23;;;;;;;22.52;10.63;;;;;;;-4.81;99.53;100344.06;4190604;28;20300;-72
2022/02/27 05:09:24;;;;;;;31.60;10.45;;;;;;;-4.87;99.70;100346.91;4189196;28;20040;-72
2022/02/27 05:11:24;;;;;;;22.50;9.68;;;;;;;-4.89;100.00;100343.59;4188844;28;20036;-72
2022/02/27 05:13:24;;;;;;;21.33;10.65;;;;;;;-4.79;100.00;100357.38;4190765;28;20487;-72
2022/02/27 05:15:25;;;;;;;23.35;10.40;;;;;;;-4.79;100.00;100353.84;4189174;28;20102;-72
2022/02/27 05:17:26;;;;;;;26.17;10.98;;;;;;;-4.75;100.00;100355.84;4187372;28;20130;-72
2022/02/27 05:19:26;;;;;;;27.33;11.23;;;;;;;-4.75;98.89;100353.16;4190142;28;20602;-72
2022/02/27 05:21:26;;;;;;;25.52;10.63;;;;;;;-4.73;98.67;100366.41;4188659;28;20068;-72
2022/02/27 05:23:27;;;;;;;22.88;9.90;;;;;;;-4.74;98.81;100354.78;4188291;28;20436;-72
2022/02/27 05:25:27;;;;;;;29.13;11.25;;;;;;;-4.78;97.72;100356.31;4188933;28;20138;-72
2022/02/27 05:27:27;;;;;;;32.75;12.80;;;;;;;-4.79;98.10;100370.06;4185695;28;20040;-72
2022/02/27 05:29:28;;;;;;;45.58;15.82;;;;;;;-4.79;98.02;100370.06;4186075;28;20033;-72
2022/02/27 05:31:28;;;;;;;44.72;16.35;;;;;;;-4.87;97.48;100374.72;4186126;28;20059;-72
2022/02/27 05:33:28;;;;;;;22.48;10.85;;;;;;;-4.94;98.29;100368.59;4188854;28;20052;-72
2022/02/27 05:35:29;;;;;;;22.70;11.30;;;;;;;-4.97;99.17;100379.84;4193164;28;20044;-72
2022/02/27 05:37:29;;;;;;;26.98;10.05;;;;;;;-4.95;99.51;100382.34;4187669;28;20044;-72
2022/02/27 05:39:29;;;;;;;27.35;9.68;;;;;;;-4.94;99.46;100379.41;4185443;28;20048;-72
2022/02/27 05:41:30;;;;;;;21.92;9.77;;;;;;;-4.95;98.62;100383.16;4185846;28;20133;-72
2022/02/27 05:43:30;;;;;;;22.90;10.20;;;;;;;-4.94;99.79;100381.28;4192762;28;20528;-72
2022/02/27 05:45:31;;;;;;;16.15;8.98;;;;;;;-4.94;98.81;100384.81;4186145;28;20080;-72
2022/02/27 05:47:31;;;;;;;15.43;7.97;;;;;;;-4.95;97.46;100391.25;4184948;28;20080;-72
2022/02/27 05:49:32;;;;;;;19.98;7.95;;;;;;;-4.97;97.80;100396.03;4186041;28;20299;-72
2022/02/27 05:51:33;;;;;;;17.58;8.20;;;;;;;-4.96;98.01;100396.91;4185876;28;20502;-72
2022/02/27 05:53:33;;;;;;;12.80;7.28;;;;;;;-4.92;97.30;100398.88;4185783;28;20048;-72
2022/02/27 05:55:33;;;;;;;16.80;8.77;;;;;;;-4.93;97.53;100391.03;4185639;28;20452;-72
2022/02/27 05:57:34;;;;;;;15.23;7.75;;;;;;;-5.00;97.63;100398.38;4186635;28;20495;-72
2022/02/27 05:59:34;;;;;;;18.02;9.25;;;;;;;-5.00;97.76;100391.13;4192226;28;20053;-73
2022/02/27 06:01:34;;;;;;;31.20;10.52;;;;;;;-5.00;97.54;100403.78;4189819;28;20049;-72
2022/02/27 06:03:34;;;;;;;24.27;11.25;;;;;;;-4.97;96.50;100412.25;4192162;28;20041;-72
2022/02/27 06:05:35;;;;;;;30.92;11.75;;;;;;;-4.93;97.57;100413.44;4188363;28;20044;-72
2022/02/27 06:07:35;;;;;;;27.80;9.82;;;;;;;-4.97;96.36;100406.03;4186102;28;20076;-72
2022/02/27 06:09:35;;;;;;;28.50;12.05;;;;;;;-4.96;96.76;100411.22;4201203;28;20486;-72
2022/02/27 06:11:36;;;;;;;29.58;12.00;;;;;;;-4.93;96.45;100416.16;4188313;28;20066;-72
2022/02/27 06:13:36;;;;;;;32.95;13.73;;;;;;;-4.94;95.12;100417.19;4188753;28;20040;-72
2022/02/27 06:15:37;;;;;;;26.08;11.35;;;;;;;-4.96;95.34;100405.81;4116715;28;76012;-72
2022/02/27 06:17:37;;;;;;;25.55;11.40;;;;;;;-4.98;94.97;100410.59;4135613;28;66044;-72
2022/02/27 06:19:37;;;;;;;25.85;11.13;;;;;;;-4.99;95.47;100414.34;4186954;28;20091;-72
2022/02/27 06:21:38;;;;;;;25.35;9.10;;;;;;;-5.00;95.72;100414.59;4201323;28;20048;-72
2022/02/27 06:23:38;;;;;;;28.75;10.18;;;;;;;-4.99;95.50;100418.94;4203004;28;20053;-72
2022/02/27 06:25:39;;;;;;;25.10;10.65;;;;;;;-4.99;96.09;100421.63;4203988;28;20048;-72
2022/02/27 06:27:42;;;;;;;22.30;10.30;;;;;;;-4.96;95.54;100422.00;4202284;28;20049;-72
2022/02/27 06:29:43;;;;;;;21.17;9.52;;;;;;;-4.95;95.11;100423.66;4204078;28;20044;-72
2022/02/27 06:31:43;;;;;;;24.05;9.60;;;;;;;-4.95;95.28;100420.13;4199912;28;20045;-72
2022/02/27 06:33:44;;;;;;;20.95;8.90;;;;;;;-4.92;95.59;100425.88;4193599;28;20545;-72
2022/02/27 06:35:44;;;;;;;20.08;9.10;;;;;;;-4.91;95.72;100430.22;4203568;28;20078;-72
2022/02/27 06:37:45;;;;;;;20.95;8.35;;;;;;;-4.92;94.93;100427.75;4202228;28;20537;-72
2022/02/27 06:39:45;;;;;;;23.30;9.02;;;;;;;-4.90;94.41;100426.47;4196117;28;20567;-73
2022/02/27 06:41:46;;;;;;;13.80;6.95;;;;;;;-4.86;95.01;100429.56;4201410;28;20079;-72
2022/02/27 06:43:46;;;;;;;20.83;8.15;;;;;;;-4.85;95.20;100434.72;4190238;28;20074;-72
2022/02/27 06:45:47;;;;;;;16.00;8.30;;;;;;;-4.87;95.72;100431.44;4188202;28;20086;-72
2022/02/27 06:47:47;;;;;;;14.25;7.10;;;;;;;-4.89;95.82;100436.22;4203539;28;20032;-72
2022/02/27 06:49:48;;;;;;;14.82;6.93;;;;;;;-4.87;95.28;100426.03;4202255;28;20493;-72
2022/02/27 06:51:48;;;;;;;14.13;7.07;;;;;;;-4.85;95.05;100423.09;4194070;28;20070;-72
2022/02/27 06:53:49;;;;;;;11.30;7.10;;;;;;;-4.87;96.06;100427.91;4187808;28;20080;-72
2022/02/27 06:55:50;;;;;;;12.88;6.93;;;;;;;-4.87;96.10;100422.50;4192488;28;20032;-72
2022/02/27 06:57:51;;;;;;;17.27;7.30;;;;;;;-4.81;96.04;100424.28;4193564;28;20044;-71
2022/02/27 06:59:51;;;;;;;12.00;6.60;;;;;;;-4.78;95.73;100425.72;4189758;28;20056;-71
2022/02/27 07:01:51;;;;;;;21.63;8.40;;;;;;;-4.78;95.62;100429.22;4190252;28;20036;-72
2022/02/27 07:03:52;;;;;;;20.40;7.80;;;;;;;-4.78;95.17;100423.84;4187871;28;20515;-72
2022/02/27 07:05:52;;;;;;;19.13;7.35;;;;;;;-4.69;94.74;100432.44;4187260;28;20629;-72
2022/02/27 07:07:52;;;;;;;13.07;7.32;;;;;;;-4.68;95.22;100426.78;4186730;28;20048;-72
2022/02/27 07:09:55;;;;;;;16.13;8.30;;;;;;;-4.66;96.05;100429.25;4204171;28;20136;-72
2022/02/27 07:11:55;;;;;;;19.20;8.93;;;;;;;-4.66;95.53;100432.78;4189245;28;20195;-72
2022/02/27 07:13:55;;;;;;;16.52;9.10;;;;;;;-4.67;95.83;100431.13;4188042;28;20049;-72
2022/02/27 07:15:56;;;;;;;18.85;9.00;;;;;;;-4.63;96.57;100436.91;4186322;28;20315;-72
2022/02/27 07:17:56;;;;;;;22.38;10.48;;;;;;;-4.59;96.56;100433.50;4186642;28;20029;-72
2022/02/27 07:19:57;;;;;;;21.02;9.77;;;;;;;-4.54;96.33;100438.22;4189000;28;20456;-72
2022/02/27 07:21:57;;;;;;;19.15;9.68;;;;;;;-4.56;96.39;100432.22;4202921;28;20072;-72
2022/02/27 07:23:58;;;;;;;19.65;8.38;;;;;;;-4.62;96.81;100431.28;4202404;28;20189;-72
2022/02/27 07:25:58;;;;;;;16.83;8.43;;;;;;;-4.54;97.55;100441.75;4192428;28;20051;-72
2022/02/27 07:27:59;;;;;;;16.42;9.40;;;;;;;-4.48;98.57;100439.16;4186465;28;20143;-72
2022/02/27 07:29:59;;;;;;;18.85;10.13;;;;;;;-4.45;99.44;100439.53;4187262;28;20079;-72
2022/02/27 07:32:00;;;;;;;19.30;10.02;;;;;;;-4.38;97.80;100440.25;4187395;28;20164;-72
2022/02/27 07:34:02;;;;;;;21.10;9.43;;;;;;;-4.34;97.15;100446.84;4186681;28;20033;-71
2022/02/27 07:36:03;;;;;;;17.08;8.48;;;;;;;-4.31;97.33;100448.25;4186275;28;20186;-71
2022/02/27 07:38:03;;;;;;;16.20;8.25;;;;;;;-4.31;97.78;100440.13;4189703;28;20056;-72
2022/02/27 07:40:05;;;;;;;17.90;9.07;;;;;;;-4.25;98.41;100450.03;4196218;28;20119;-72
2022/02/27 07:42:05;;;;;;;15.00;7.05;;;;;;;-4.25;98.47;100444.63;4186950;28;20020;-73
2022/02/27 07:44:06;;;;;;;15.13;7.80;;;;;;;-4.21;98.91;100440.41;4193150;28;20631;-72
2022/02/27 07:46:06;;;;;;;13.07;7.10;;;;;;;-4.21;98.70;100435.00;4199138;28;20111;-72
2022/02/27 07:48:06;;;;;;;16.05;7.95;;;;;;;-4.13;98.83;100450.88;4190239;28;20028;-72
2022/02/27 07:50:07;;;;;;;15.70;7.75;;;;;;;-4.06;97.79;100448.03;4201720;28;20351;-72
2022/02/27 07:52:07;;;;;;;14.40;8.32;;;;;;;-4.04;97.53;100445.94;4185762;28;20032;-72
2022/02/27 07:54:08;;;;;;;15.77;7.65;;;;;;;-4.03;98.08;100431.38;4185767;28;20184;-72
2022/02/27 07:56:08;;;;;;;18.17;8.18;;;;;;;-3.91;98.37;100436.75;4187371;28;20040;-72
2022/02/27 07:58:11;;;;;;;16.13;8.52;;;;;;;-3.85;98.73;100446.66;4186039;28;20181;-71
2022/02/27 08:00:11;;;;;;;;;;;;;;;-3.78;98.68;100445.47;4187298;28;20450;-71
2022/02/27 08:02:12;;;;;;;12.60;7.07;;;;;;;-3.74;99.39;100440.41;4186616;28;19913;-71
2022/02/27 08:04:12;;;;;;;15.43;7.93;;;;;;;-3.66;100.00;100440.03;4190011;28;20032;-72
2022/02/27 08:06:13;;;;;;;12.05;7.03;;;;;;;-3.59;99.02;100446.16;4194834;28;20483;-72
2022/02/27 08:08:13;;;;;;;13.77;7.50;;;;;;;-3.57;98.75;100441.31;4201710;28;20043;-71
2022/02/27 08:10:14;;;;;;;16.13;8.13;;;;;;;-3.52;99.06;100448.72;4195938;28;20440;-71
2022/02/27 08:12:14;;;;;;;16.40;8.27;;;;;;;-3.50;99.56;100436.59;4191925;28;20135;-72
2022/02/27 08:14:14;;;;;;;16.38;7.38;;;;;;;-3.43;99.81;100437.31;4193608;28;20102;-72
2022/02/27 08:16:15;;;;;;;12.80;7.32;;;;;;;-3.38;100.00;100443.91;4188251;28;20495;-72
2022/02/27 08:18:16;;;;;;;13.15;7.13;;;;;;;-3.35;100.00;100444.22;4188144;28;20029;-72
2022/02/27 08:20:17;;;;;;;14.03;7.20;;;;;;;-3.29;100.00;100445.16;4189310;28;20671;-72
2022/02/27 08:22:20;;;;;;;14.88;8.18;;;;;;;-3.26;100.00;100436.56;4189860;28;20282;-72
2022/02/27 08:24:21;;;;;;;10.30;6.90;;;;;;;-3.20;100.00;100443.72;4186507;28;20053;-72
2022/02/27 08:26:21;;;;;;;14.40;7.10;;;;;;;-3.13;100.00;100441.72;4189616;28;20040;-72
2022/02/27 08:28:22;;;;;;;16.88;8.73;;;;;;;-3.09;100.00;100437.44;4201154;28;20593;-72
2022/02/27 08:30:22;;;;;;;28.23;13.60;;;;;;;-2.98;100.00;100441.16;4201982;28;20491;-72
2022/02/27 08:32:22;;;;;;;55.33;25.52;;;;;;;-2.87;100.00;100440.31;4201729;28;20135;-72
2022/02/27 08:34:27;;;;;;;44.40;21.67;;;;;;;-2.76;100.00;100441.31;4187602;28;20037;-72
2022/02/27 08:36:27;;;;;;;48.75;22.42;;;;;;;-2.67;100.00;100448.81;4186239;28;20035;-72
2022/02/27 08:38:27;;;;;;;35.17;16.25;;;;;;;-2.59;100.00;100444.88;4185661;28;20469;-72
2022/02/27 08:40:27;;;;;;;29.08;15.65;;;;;;;-2.51;100.00;100443.66;4186067;28;20115;-72
2022/02/27 08:42:30;;;;;;;23.05;12.75;;;;;;;-2.44;100.00;100445.16;4186810;28;20029;-72
2022/02/27 08:44:33;;;;;;;25.95;13.32;;;;;;;-2.37;100.00;100445.00;4191625;28;20089;-72
2022/02/27 08:46:34;;;;;;;22.15;10.93;;;;;;;-2.30;100.00;100448.38;4202293;28;20036;-72
2022/02/27 08:48:34;;;;;;;19.50;9.35;;;;;;;-2.21;100.00;100433.34;4192519;28;20128;-72
2022/02/27 08:50:35;;;;;;;19.50;9.23;;;;;;;-2.12;100.00;100453.56;4186202;28;20049;-72
2022/02/27 08:52:35;;;;;;;13.90;8.57;;;;;;;-1.99;100.00;100452.41;4196574;28;20036;-72
2022/02/27 08:54:36;;;;;;;18.17;9.00;;;;;;;-1.88;100.00;100451.50;4186335;28;20036;-72
2022/02/27 08:56:36;;;;;;;23.15;10.07;;;;;;;-1.70;100.00;100442.28;4192613;28;20392;-71
2022/02/27 08:58:37;;;;;;;17.80;10.23;;;;;;;-1.60;100.00;100441.59;4201139;28;20344;-72
2022/02/27 09:00:37;;;;;;;20.60;9.40;;;;;;;-1.50;100.00;100458.00;4202546;28;20044;-72
2022/02/27 09:02:38;;;;;;;15.20;8.10;;;;;;;-1.42;100.00;100450.25;4199971;28;20039;-72
2022/02/27 09:04:38;;;;;;;15.95;8.05;;;;;;;-1.31;100.00;100450.41;4201069;28;20434;-72
2022/02/27 09:06:39;;;;;;;15.40;8.15;;;;;;;-1.24;100.00;100448.31;4200913;28;20304;-72
2022/02/27 09:08:41;;;;;;;17.58;8.77;;;;;;;-1.12;100.00;100451.72;4186679;28;20080;-72
2022/02/27 09:10:42;;;;;;;;;;;;;;;-0.98;100.00;100452.19;4187750;28;20045;-72
2022/02/27 09:12:44;;;;;;;15.35;8.35;;;;;;;-0.91;100.00;100450.91;4186401;28;20253;-72